createdAt,value
2023-05-06T00:00:18.007Z,26.96
2023-05-06T00:01:17.954Z,26.93
2023-05-06T00:02:17.795Z,26.93
2023-05-06T00:03:17.888Z,26.96
2023-05-06T00:04:17.912Z,26.93
2023-05-06T00:05:17.931Z,26.93
2023-05-06T00:06:18.012Z,26.94
2023-05-06T00:07:18.055Z,26.94
2023-05-06T00:08:18.085Z,26.96
2023-05-06T00:09:18.164Z,26.94
2023-05-06T00:10:18.197Z,26.96
2023-05-06T00:11:18.257Z,26.93
2023-05-06T00:12:18.346Z,26.93
2023-05-06T00:13:18.432Z,26.93
2023-05-06T00:14:18.437Z,26.97
2023-05-06T00:15:18.573Z,26.93
2023-05-06T00:16:18.635Z,26.96
2023-05-06T00:17:18.626Z,26.96
2023-05-06T00:18:18.677Z,26.92
2023-05-06T00:19:18.865Z,26.94
2023-05-06T00:20:18.797Z,26.92
2023-05-06T00:21:18.845Z,26.93
2023-05-06T00:22:18.900Z,26.94
2023-05-06T00:23:18.937Z,26.93
2023-05-06T00:24:18.952Z,26.94
2023-05-06T00:25:19.001Z,26.92
2023-05-06T00:26:19.044Z,26.92
2023-05-06T00:27:19.086Z,26.93
2023-05-06T00:28:19.149Z,26.94
2023-05-06T00:29:19.218Z,26.93
2023-05-06T00:30:19.259Z,26.93
2023-05-06T00:31:19.326Z,26.92
2023-05-06T00:32:19.355Z,26.93
2023-05-06T00:33:19.387Z,26.92
2023-05-06T00:34:19.440Z,26.93
2023-05-06T00:35:19.543Z,26.92
2023-05-06T00:36:19.645Z,26.92
2023-05-06T00:37:19.552Z,26.89
2023-05-06T00:38:19.594Z,26.93
2023-05-06T00:39:19.640Z,26.93
2023-05-06T00:40:19.658Z,26.93
2023-05-06T00:41:19.666Z,26.93
2023-05-06T00:42:19.709Z,26.92
2023-05-06T00:43:19.762Z,26.93
2023-05-06T00:44:20.632Z,26.89
2023-05-06T00:45:19.800Z,26.87
2023-05-06T00:46:19.836Z,26.92
2023-05-06T00:47:19.868Z,26.93
2023-05-06T00:48:19.901Z,26.89
2023-05-06T00:49:19.907Z,26.92
2023-05-06T00:50:19.963Z,26.90
2023-05-06T00:51:20.048Z,26.92
2023-05-06T00:52:20.015Z,26.92
2023-05-06T00:53:20.036Z,26.92
2023-05-06T00:54:20.068Z,26.90
2023-05-06T00:55:20.115Z,26.90
2023-05-06T00:56:20.895Z,26.89
2023-05-06T00:57:20.123Z,26.90
2023-05-06T00:58:20.517Z,26.90
2023-05-06T00:59:20.604Z,26.92
2023-05-06T01:00:20.252Z,26.92
2023-05-06T01:01:20.439Z,26.93
2023-05-06T01:02:20.450Z,26.92
2023-05-06T01:03:20.540Z,26.90
2023-05-06T01:04:20.475Z,26.89
2023-05-06T01:05:20.544Z,26.93
2023-05-06T01:06:20.605Z,26.90
2023-05-06T01:07:20.646Z,26.90
2023-05-06T01:08:20.610Z,26.93
2023-05-06T01:09:20.651Z,26.89
2023-05-06T01:10:20.706Z,26.90
2023-05-06T01:11:20.698Z,26.92
2023-05-06T01:12:20.721Z,26.90
2023-05-06T01:13:20.833Z,26.90
2023-05-06T01:14:20.748Z,26.90
2023-05-06T01:15:20.764Z,26.89
2023-05-06T01:16:20.790Z,26.89
2023-05-06T01:17:20.738Z,26.90
2023-05-06T01:18:20.798Z,26.92
2023-05-06T01:19:20.811Z,26.89
2023-05-06T01:20:20.779Z,26.90
2023-05-06T01:21:20.776Z,26.90
2023-05-06T01:22:20.772Z,26.89
2023-05-06T01:23:20.849Z,26.87
2023-05-06T01:24:20.794Z,26.89
2023-05-06T01:25:20.822Z,26.89
2023-05-06T01:26:20.845Z,26.89
2023-05-06T01:27:20.859Z,26.87
2023-05-06T01:28:20.852Z,26.87
2023-05-06T01:29:20.874Z,26.89
2023-05-06T01:30:20.886Z,26.87
2023-05-06T01:31:20.886Z,26.89
2023-05-06T01:32:20.878Z,26.87
2023-05-06T01:33:20.898Z,26.89
2023-05-06T01:34:20.828Z,26.87
2023-05-06T01:35:20.831Z,26.89
2023-05-06T01:36:20.870Z,26.86
2023-05-06T01:37:20.905Z,26.86
2023-05-06T01:38:20.878Z,26.89
2023-05-06T01:39:20.935Z,26.87
2023-05-06T01:40:20.870Z,26.87
2023-05-06T01:41:20.840Z,26.85
2023-05-06T01:42:20.861Z,26.86
2023-05-06T01:43:20.838Z,26.86
2023-05-06T01:44:20.838Z,26.87
2023-05-06T01:45:20.892Z,26.87
2023-05-06T01:46:20.878Z,26.86
2023-05-06T01:47:20.822Z,26.86
2023-05-06T01:48:20.827Z,26.86
2023-05-06T01:49:20.836Z,26.86
2023-05-06T01:50:20.829Z,26.85
2023-05-06T01:51:20.839Z,26.86
2023-05-06T01:52:20.795Z,26.87
2023-05-06T01:53:20.787Z,26.85
2023-05-06T01:54:20.793Z,26.86
2023-05-06T01:55:20.878Z,26.86
2023-05-06T01:56:20.817Z,26.86
2023-05-06T01:57:20.794Z,26.86
2023-05-06T01:58:20.807Z,26.85
2023-05-06T01:59:20.818Z,26.85
2023-05-06T02:00:20.799Z,26.83
2023-05-06T02:01:20.803Z,26.83
2023-05-06T02:02:20.791Z,26.85
2023-05-06T02:03:20.861Z,26.86
2023-05-06T02:04:20.789Z,26.86
2023-05-06T02:05:20.797Z,26.86
2023-05-06T02:06:20.769Z,26.85
2023-05-06T02:07:20.772Z,26.83
2023-05-06T02:08:20.775Z,26.83
2023-05-06T02:09:20.779Z,26.83
2023-05-06T02:10:20.763Z,26.83
2023-05-06T02:11:20.778Z,26.83
2023-05-06T02:12:20.756Z,26.86
2023-05-06T02:13:20.867Z,26.83
2023-05-06T02:14:20.763Z,26.85
2023-05-06T02:15:20.765Z,26.82
2023-05-06T02:16:20.781Z,26.86
2023-05-06T02:17:20.741Z,26.85
2023-05-06T02:18:20.731Z,26.82
2023-05-06T02:19:20.754Z,26.85
2023-05-06T02:20:20.716Z,26.83
2023-05-06T02:21:20.697Z,26.83
2023-05-06T02:22:20.743Z,26.82
2023-05-06T02:23:20.720Z,26.82
2023-05-06T02:24:20.683Z,26.82
2023-05-06T02:25:20.732Z,26.83
2023-05-06T02:26:20.694Z,26.85
2023-05-06T02:27:20.711Z,26.85
2023-05-06T02:28:20.687Z,26.83
2023-05-06T02:29:21.662Z,26.82
2023-05-06T02:30:20.690Z,26.82
2023-05-06T02:31:20.722Z,26.81
2023-05-06T02:32:20.706Z,26.83
2023-05-06T02:33:20.678Z,26.83
2023-05-06T02:34:20.712Z,26.79
2023-05-06T02:35:20.702Z,26.81
2023-05-06T02:36:20.685Z,26.82
2023-05-06T02:37:20.690Z,26.82
2023-05-06T02:38:20.677Z,26.79
2023-05-06T02:39:20.750Z,26.81
2023-05-06T02:40:20.699Z,26.82
2023-05-06T02:41:20.678Z,26.81
2023-05-06T02:42:20.707Z,26.82
2023-05-06T02:43:20.726Z,26.82
2023-05-06T02:44:20.651Z,26.81
2023-05-06T02:45:20.664Z,26.79
2023-05-06T02:46:20.746Z,26.81
2023-05-06T02:47:20.693Z,26.81
2023-05-06T02:48:20.672Z,26.81
2023-05-06T02:49:20.642Z,26.81
2023-05-06T02:50:20.631Z,26.79
2023-05-06T02:51:20.664Z,26.82
2023-05-06T02:52:20.660Z,26.79
2023-05-06T02:53:20.675Z,26.81
2023-05-06T02:54:20.665Z,26.82
2023-05-06T02:55:20.650Z,26.81
2023-05-06T02:56:20.668Z,26.79
2023-05-06T02:57:20.638Z,26.81
2023-05-06T02:58:20.631Z,26.81
2023-05-06T02:59:20.765Z,26.81
2023-05-06T03:00:20.644Z,26.78
2023-05-06T03:01:20.674Z,26.79
2023-05-06T03:02:20.625Z,26.79
2023-05-06T03:03:20.645Z,26.81
2023-05-06T03:04:20.647Z,26.81
2023-05-06T03:05:20.623Z,26.81
2023-05-06T03:06:20.628Z,26.79
2023-05-06T03:07:20.631Z,26.79
2023-05-06T03:08:20.614Z,26.81
2023-05-06T03:09:20.640Z,26.79
2023-05-06T03:10:20.622Z,26.78
2023-05-06T03:11:20.593Z,26.81
2023-05-06T03:12:20.612Z,26.81
2023-05-06T03:13:20.647Z,26.79
2023-05-06T03:14:20.622Z,26.79
2023-05-06T03:15:20.662Z,26.81
2023-05-06T03:16:20.617Z,26.78
2023-05-06T03:17:20.598Z,26.78
2023-05-06T03:18:20.584Z,26.79
2023-05-06T03:19:20.608Z,26.79
2023-05-06T03:20:20.620Z,26.78
2023-05-06T03:21:20.616Z,26.79
2023-05-06T03:22:20.613Z,26.79
2023-05-06T03:23:20.598Z,26.81
2023-05-06T03:24:20.577Z,26.81
2023-05-06T03:25:20.595Z,26.78
2023-05-06T03:26:20.589Z,26.78
2023-05-06T03:27:20.572Z,26.79
2023-05-06T03:28:20.574Z,26.79
2023-05-06T03:29:20.562Z,26.81
2023-05-06T03:30:20.625Z,26.79
2023-05-06T03:31:20.710Z,26.79
2023-05-06T03:32:20.574Z,26.76
2023-05-06T03:33:20.574Z,26.78
2023-05-06T03:34:20.572Z,26.79
2023-05-06T03:35:20.552Z,26.79
2023-05-06T03:36:20.590Z,26.78
2023-05-06T03:37:20.576Z,26.78
2023-05-06T03:38:20.582Z,26.78
2023-05-06T03:39:20.585Z,26.78
2023-05-06T03:40:20.592Z,26.75
2023-05-06T03:41:20.572Z,26.76
2023-05-06T03:42:20.585Z,26.76
2023-05-06T03:43:20.586Z,26.76
2023-05-06T03:44:20.598Z,26.76
2023-05-06T03:45:20.583Z,26.76
2023-05-06T03:46:20.668Z,26.75
2023-05-06T03:47:20.750Z,26.78
2023-05-06T03:48:20.605Z,26.76
2023-05-06T03:49:20.614Z,26.76
2023-05-06T03:50:20.585Z,26.76
2023-05-06T03:51:20.573Z,26.76
2023-05-06T03:52:20.599Z,26.76
2023-05-06T03:53:20.621Z,26.75
2023-05-06T03:54:20.584Z,26.75
2023-05-06T03:55:20.585Z,26.75
2023-05-06T03:56:20.590Z,26.75
2023-05-06T03:57:20.601Z,26.76
2023-05-06T03:58:20.617Z,26.75
2023-05-06T03:59:20.606Z,26.75
2023-05-06T04:00:20.611Z,26.75
2023-05-06T04:01:20.577Z,26.73
2023-05-06T04:02:20.667Z,26.73
2023-05-06T04:03:20.751Z,26.75
2023-05-06T04:04:20.610Z,26.75
2023-05-06T04:05:20.602Z,26.73
2023-05-06T04:06:20.615Z,26.73
2023-05-06T04:07:20.630Z,26.72
2023-05-06T04:08:20.622Z,26.75
2023-05-06T04:09:20.617Z,26.75
2023-05-06T04:10:20.636Z,26.73
2023-05-06T04:11:20.622Z,26.73
2023-05-06T04:12:20.673Z,26.76
2023-05-06T04:13:20.692Z,26.75
2023-05-06T04:14:20.671Z,26.72
2023-05-06T04:15:20.666Z,26.75
2023-05-06T04:16:20.690Z,26.72
2023-05-06T04:17:20.644Z,26.75
2023-05-06T04:18:20.654Z,26.72
2023-05-06T04:19:20.790Z,26.73
2023-05-06T04:20:20.648Z,26.73
2023-05-06T04:21:20.665Z,26.75
2023-05-06T04:22:20.650Z,26.75
2023-05-06T04:23:20.691Z,26.72
2023-05-06T04:24:20.644Z,26.73
2023-05-06T04:25:20.636Z,26.75
2023-05-06T04:26:20.658Z,26.73
2023-05-06T04:27:20.674Z,26.76
2023-05-06T04:28:20.693Z,26.72
2023-05-06T04:29:20.690Z,26.73
2023-05-06T04:30:20.674Z,26.72
2023-05-06T04:31:20.684Z,26.71
2023-05-06T04:32:20.688Z,26.73
2023-05-06T04:33:20.721Z,26.73
2023-05-06T04:34:20.684Z,26.72
2023-05-06T04:35:20.721Z,26.75
2023-05-06T04:36:20.729Z,26.72
2023-05-06T04:37:20.709Z,26.72
2023-05-06T04:38:20.716Z,26.73
2023-05-06T04:39:20.709Z,26.72
2023-05-06T04:40:20.730Z,26.72
2023-05-06T04:41:20.729Z,26.72
2023-05-06T04:42:20.844Z,26.72
2023-05-06T04:43:20.748Z,26.72
2023-05-06T04:44:20.760Z,26.72
2023-05-06T04:45:20.760Z,26.72
2023-05-06T04:46:20.817Z,26.72
2023-05-06T04:47:20.768Z,26.72
2023-05-06T04:48:20.778Z,26.73
2023-05-06T04:49:20.787Z,26.73
2023-05-06T04:50:20.762Z,26.73
2023-05-06T04:51:20.847Z,26.71
2023-05-06T04:52:20.782Z,26.71
2023-05-06T04:53:20.823Z,26.72
2023-05-06T04:54:20.813Z,26.72
2023-05-06T04:55:20.844Z,26.72
2023-05-06T04:56:20.788Z,26.72
2023-05-06T04:57:20.802Z,26.71
2023-05-06T04:58:20.809Z,26.69
2023-05-06T04:59:20.831Z,26.72
2023-05-06T05:00:20.796Z,26.72
2023-05-06T05:01:20.963Z,26.71
2023-05-06T05:02:20.901Z,26.71
2023-05-06T05:03:20.905Z,26.71
2023-05-06T05:04:20.841Z,26.72
2023-05-06T05:05:20.829Z,26.71
2023-05-06T05:06:20.848Z,26.71
2023-05-06T05:07:20.917Z,26.71
2023-05-06T05:08:20.870Z,26.72
2023-05-06T05:09:20.840Z,26.71
2023-05-06T05:10:20.851Z,26.73
2023-05-06T05:11:20.836Z,26.71
2023-05-06T05:12:20.842Z,26.73
2023-05-06T05:13:20.882Z,26.71
2023-05-06T05:14:20.853Z,26.72
2023-05-06T05:15:20.826Z,26.72
2023-05-06T05:16:20.908Z,26.73
2023-05-06T05:17:20.862Z,26.72
2023-05-06T05:18:20.862Z,26.71
2023-05-06T05:19:20.846Z,26.73
2023-05-06T05:20:20.857Z,26.72
2023-05-06T05:21:20.865Z,26.72
2023-05-06T05:22:20.869Z,26.72
2023-05-06T05:23:20.917Z,26.72
2023-05-06T05:24:20.891Z,26.71
2023-05-06T05:25:20.883Z,26.71
2023-05-06T05:26:20.904Z,26.73
2023-05-06T05:27:20.882Z,26.73
2023-05-06T05:28:20.880Z,26.72
2023-05-06T05:29:20.863Z,26.73
2023-05-06T05:30:20.899Z,26.71
2023-05-06T05:31:20.940Z,26.71
2023-05-06T05:32:20.877Z,26.73
2023-05-06T05:33:20.975Z,26.72
2023-05-06T05:34:20.882Z,26.72
2023-05-06T05:35:20.900Z,26.72
2023-05-06T05:36:20.880Z,26.73
2023-05-06T05:37:20.871Z,26.72
2023-05-06T05:38:20.879Z,26.72
2023-05-06T05:39:20.936Z,26.73
2023-05-06T05:40:20.897Z,26.73
2023-05-06T05:41:20.862Z,26.73
2023-05-06T05:42:20.872Z,26.73
2023-05-06T05:43:20.880Z,26.72
2023-05-06T05:44:20.865Z,26.76
2023-05-06T05:45:20.870Z,26.72
2023-05-06T05:46:20.939Z,26.72
2023-05-06T05:47:20.895Z,26.73
2023-05-06T05:48:20.893Z,26.72
2023-05-06T05:49:20.878Z,26.73
2023-05-06T05:50:20.868Z,26.73
2023-05-06T05:51:20.870Z,26.72
2023-05-06T05:52:20.875Z,26.75
2023-05-06T05:53:20.894Z,26.75
2023-05-06T05:54:20.885Z,26.73
2023-05-06T05:55:20.907Z,26.75
2023-05-06T05:56:20.924Z,26.73
2023-05-06T05:57:20.865Z,26.73
2023-05-06T05:58:20.897Z,26.71
2023-05-06T05:59:20.879Z,26.75
2023-05-06T06:00:20.893Z,26.75
2023-05-06T06:01:20.866Z,26.72
2023-05-06T06:02:20.980Z,26.73
2023-05-06T06:03:20.974Z,26.72
2023-05-06T06:04:20.915Z,26.72
2023-05-06T06:05:20.880Z,26.75
2023-05-06T06:06:20.903Z,26.76
2023-05-06T06:07:20.907Z,26.73
2023-05-06T06:08:20.885Z,26.76
2023-05-06T06:09:20.944Z,26.73
2023-05-06T06:10:20.887Z,26.73
2023-05-06T06:11:20.978Z,26.75
2023-05-06T06:12:20.882Z,26.76
2023-05-06T06:13:20.976Z,26.75
2023-05-06T06:14:20.861Z,26.75
2023-05-06T06:15:20.902Z,26.76
2023-05-06T06:16:20.947Z,26.78
2023-05-06T06:17:20.881Z,26.76
2023-05-06T06:18:20.893Z,26.72
2023-05-06T06:19:20.904Z,26.76
2023-05-06T06:20:20.885Z,26.76
2023-05-06T06:21:20.906Z,26.76
2023-05-06T06:22:20.869Z,26.76
2023-05-06T06:23:20.904Z,26.81
2023-05-06T06:24:20.851Z,26.76
2023-05-06T06:25:20.895Z,26.78
2023-05-06T06:26:20.860Z,26.81
2023-05-06T06:27:20.922Z,26.78
2023-05-06T06:28:20.837Z,26.76
2023-05-06T06:29:20.864Z,26.78
2023-05-06T06:30:20.849Z,26.78
2023-05-06T06:31:20.850Z,26.78
2023-05-06T06:32:20.875Z,26.76
2023-05-06T06:33:20.844Z,26.78
2023-05-06T06:34:20.836Z,26.78
2023-05-06T06:35:20.863Z,26.76
2023-05-06T06:36:20.863Z,26.76
2023-05-06T06:37:20.831Z,26.76
2023-05-06T06:38:20.836Z,26.79
2023-05-06T06:39:20.831Z,26.78
2023-05-06T06:40:20.816Z,26.76
2023-05-06T06:41:20.799Z,26.76
2023-05-06T06:42:20.794Z,26.78
2023-05-06T06:43:20.812Z,26.78
2023-05-06T06:44:20.821Z,26.79
2023-05-06T06:45:20.789Z,26.78
2023-05-06T06:46:20.917Z,26.79
2023-05-06T06:47:20.802Z,26.79
2023-05-06T06:48:20.833Z,26.79
2023-05-06T06:49:20.855Z,26.79
2023-05-06T06:50:20.874Z,26.81
2023-05-06T06:51:20.852Z,26.82
2023-05-06T06:52:20.848Z,26.79
2023-05-06T06:53:20.919Z,26.79
2023-05-06T06:54:20.877Z,26.81
2023-05-06T06:55:20.872Z,26.79
2023-05-06T06:56:20.867Z,26.81
2023-05-06T06:57:20.910Z,26.81
2023-05-06T06:58:20.864Z,26.79
2023-05-06T06:59:20.875Z,26.81
2023-05-06T07:00:20.932Z,26.82
2023-05-06T07:01:20.958Z,26.82
2023-05-06T07:02:20.968Z,26.83
2023-05-06T07:03:20.970Z,26.83
2023-05-06T07:04:20.992Z,26.83
2023-05-06T07:05:21.033Z,26.82
2023-05-06T07:06:21.033Z,26.82
2023-05-06T07:07:21.037Z,26.83
2023-05-06T07:08:21.097Z,26.83
2023-05-06T07:09:21.113Z,26.83
2023-05-06T07:10:21.117Z,26.83
2023-05-06T07:11:21.173Z,26.85
2023-05-06T07:12:21.178Z,26.86
2023-05-06T07:13:21.299Z,26.85
2023-05-06T07:14:21.260Z,26.83
2023-05-06T07:15:21.358Z,26.85
2023-05-06T07:16:21.393Z,26.85
2023-05-06T07:17:21.373Z,26.87
2023-05-06T07:18:21.464Z,26.85
2023-05-06T07:19:21.425Z,26.87
2023-05-06T07:20:21.472Z,26.86
2023-05-06T07:21:21.496Z,26.87
2023-05-06T07:22:21.530Z,26.87
2023-05-06T07:23:21.591Z,26.87
2023-05-06T07:24:21.634Z,26.87
2023-05-06T07:25:21.636Z,26.89
2023-05-06T07:26:21.711Z,26.92
2023-05-06T07:27:21.870Z,26.92
2023-05-06T07:28:21.778Z,26.90
2023-05-06T07:29:21.851Z,26.93
2023-05-06T07:30:23.342Z,26.92
2023-05-06T07:31:22.024Z,26.93
2023-05-06T07:32:21.984Z,26.93
2023-05-06T07:33:21.988Z,26.94
2023-05-06T07:34:21.992Z,26.94
2023-05-06T07:35:22.054Z,26.99
2023-05-06T07:36:22.147Z,26.97
2023-05-06T07:37:22.205Z,26.99
2023-05-06T07:38:22.225Z,27.03
2023-05-06T07:39:22.283Z,27.02
2023-05-06T07:40:22.348Z,27.02
2023-05-06T07:41:22.418Z,27.03
2023-05-06T07:42:22.473Z,27.04
2023-05-06T07:43:22.545Z,27.06
2023-05-06T07:44:22.609Z,27.06
2023-05-06T07:45:22.665Z,27.10
2023-05-06T07:46:22.776Z,27.09
2023-05-06T07:47:22.931Z,27.14
2023-05-06T07:48:22.882Z,27.11
2023-05-06T07:49:22.906Z,27.13
2023-05-06T07:50:23.004Z,27.14
2023-05-06T07:51:23.031Z,27.14
2023-05-06T07:52:23.067Z,27.14
2023-05-06T07:53:23.130Z,27.17
2023-05-06T07:54:23.206Z,27.16
2023-05-06T07:55:23.236Z,27.17
2023-05-06T07:56:23.279Z,27.17
2023-05-06T07:57:23.321Z,27.18
2023-05-06T07:58:23.380Z,27.18
2023-05-06T07:59:23.455Z,27.18
2023-05-06T08:00:23.489Z,27.22
2023-05-06T08:01:23.550Z,27.18
2023-05-06T08:02:23.732Z,27.20
2023-05-06T08:03:23.870Z,27.20
2023-05-06T08:04:23.705Z,27.22
2023-05-06T08:05:23.772Z,27.23
2023-05-06T08:06:23.836Z,27.23
2023-05-06T08:07:23.887Z,27.23
2023-05-06T08:08:23.911Z,27.23
2023-05-06T08:09:23.951Z,27.22
2023-05-06T08:10:24.025Z,27.24
2023-05-06T08:11:24.075Z,27.22
2023-05-06T08:12:24.163Z,27.22
2023-05-06T08:13:24.211Z,27.22
2023-05-06T08:14:24.233Z,27.24
2023-05-06T08:15:24.297Z,27.23
2023-05-06T08:16:25.501Z,27.23
2023-05-06T08:17:24.403Z,27.23
2023-05-06T08:18:24.464Z,27.20
2023-05-06T08:19:24.750Z,27.24
2023-05-06T08:20:24.532Z,27.26
2023-05-06T08:21:24.574Z,27.24
2023-05-06T08:22:24.661Z,27.26
2023-05-06T08:23:24.695Z,27.26
2023-05-06T08:24:24.711Z,27.26
2023-05-06T08:25:24.762Z,27.26
2023-05-06T08:26:24.798Z,27.26
2023-05-06T08:27:24.869Z,27.26
2023-05-06T08:28:25.458Z,27.26
2023-05-06T08:29:24.940Z,27.27
2023-05-06T08:30:24.965Z,27.29
2023-05-06T08:31:25.071Z,27.26
2023-05-06T08:32:25.278Z,27.29
2023-05-06T08:33:25.162Z,27.29
2023-05-06T08:34:25.151Z,27.26
2023-05-06T08:35:25.292Z,27.29
2023-05-06T08:36:25.281Z,27.27
2023-05-06T08:37:25.314Z,27.27
2023-05-06T08:38:25.377Z,27.27
2023-05-06T08:39:25.432Z,27.27
2023-05-06T08:40:25.426Z,27.27
2023-05-06T08:41:25.467Z,27.26
2023-05-06T08:42:25.528Z,27.29
2023-05-06T08:43:25.587Z,27.27
2023-05-06T08:44:25.668Z,27.29
2023-05-06T08:45:27.394Z,27.29
2023-05-06T08:46:25.713Z,27.27
2023-05-06T08:47:25.698Z,27.30
2023-05-06T08:48:25.669Z,27.29
2023-05-06T08:49:25.662Z,27.27
2023-05-06T08:50:25.662Z,27.27
2023-05-06T08:51:26.169Z,27.29
2023-05-06T08:52:25.656Z,27.30
2023-05-06T08:53:25.632Z,27.32
2023-05-06T08:54:25.600Z,27.30
2023-05-06T08:55:25.600Z,27.33
2023-05-06T08:56:25.598Z,27.30
2023-05-06T08:57:25.569Z,27.30
2023-05-06T08:58:25.623Z,27.30
2023-05-06T08:59:25.578Z,27.32
2023-05-06T09:00:25.561Z,27.30
2023-05-06T09:01:25.592Z,27.30
2023-05-06T09:02:25.588Z,27.29
2023-05-06T09:03:25.738Z,27.30
2023-05-06T09:04:25.517Z,27.33
2023-05-06T09:05:25.538Z,27.29
2023-05-06T09:06:25.586Z,27.27
2023-05-06T09:07:25.515Z,27.29
2023-05-06T09:08:25.488Z,27.30
2023-05-06T09:09:25.494Z,27.30
2023-05-06T09:10:25.504Z,27.33
2023-05-06T09:11:25.517Z,27.32
2023-05-06T09:12:25.478Z,27.30
2023-05-06T09:13:25.457Z,27.30
2023-05-06T09:14:25.452Z,27.30
2023-05-06T09:15:25.425Z,27.29
2023-05-06T09:16:25.476Z,27.30
2023-05-06T09:17:25.458Z,27.29
2023-05-06T09:18:25.411Z,27.30
2023-05-06T09:19:25.409Z,27.32
2023-05-06T09:20:25.393Z,27.30
2023-05-06T09:21:25.434Z,27.30
2023-05-06T09:22:25.563Z,27.30
2023-05-06T09:23:25.631Z,27.29
2023-05-06T09:24:25.579Z,27.30
2023-05-06T09:25:25.633Z,27.30
2023-05-06T09:26:25.659Z,27.29
2023-05-06T09:27:25.739Z,27.30
2023-05-06T09:28:25.760Z,27.27
2023-05-06T09:29:25.809Z,27.27
2023-05-06T09:30:25.862Z,27.29
2023-05-06T09:31:25.975Z,27.27
2023-05-06T09:32:25.961Z,27.29
2023-05-06T09:33:25.953Z,27.29
2023-05-06T09:34:26.027Z,27.27
2023-05-06T09:35:26.074Z,27.29
2023-05-06T09:36:26.130Z,27.30
2023-05-06T09:37:26.150Z,27.27
2023-05-06T09:38:26.342Z,27.27
2023-05-06T09:39:26.210Z,27.27
2023-05-06T09:40:26.255Z,27.27
2023-05-06T09:41:26.332Z,27.27
2023-05-06T09:42:26.366Z,27.29
2023-05-06T09:43:26.405Z,27.29
2023-05-06T09:44:26.476Z,27.29
2023-05-06T09:45:26.489Z,27.29
2023-05-06T09:46:26.533Z,27.27
2023-05-06T09:47:26.677Z,27.27
2023-05-06T09:48:26.628Z,27.29
2023-05-06T09:49:26.690Z,27.29
2023-05-06T09:50:26.720Z,27.30
2023-05-06T09:51:26.766Z,27.27
2023-05-06T09:52:26.799Z,27.27
2023-05-06T09:53:26.854Z,27.27
2023-05-06T09:54:26.925Z,27.30
2023-05-06T09:55:27.247Z,27.29
2023-05-06T09:56:26.989Z,27.27
2023-05-06T09:57:27.080Z,27.26
2023-05-06T09:58:27.095Z,27.24
2023-05-06T09:59:27.179Z,27.26
2023-05-06T10:00:27.226Z,27.27
2023-05-06T10:01:36.052Z,27.27
2023-05-06T10:02:28.391Z,27.27
2023-05-06T10:03:27.337Z,27.29
2023-05-06T10:04:27.309Z,27.26
2023-05-06T10:05:27.248Z,27.27
2023-05-06T10:06:27.213Z,27.26
2023-05-06T10:07:27.213Z,27.27
2023-05-06T10:08:27.209Z,27.27
2023-05-06T10:09:27.204Z,27.30
2023-05-06T10:10:27.177Z,27.27
2023-05-06T10:11:27.179Z,27.32
2023-05-06T10:12:27.172Z,27.32
2023-05-06T10:13:27.247Z,27.29
2023-05-06T10:14:27.254Z,27.29
2023-05-06T10:15:27.316Z,27.32
2023-05-06T10:16:27.432Z,27.30
2023-05-06T10:17:27.441Z,27.33
2023-05-06T10:18:27.464Z,27.32
2023-05-06T10:19:27.501Z,27.33
2023-05-06T10:20:27.541Z,27.32
2023-05-06T10:21:27.579Z,27.30
2023-05-06T10:22:27.649Z,27.32
2023-05-06T10:23:27.691Z,27.32
2023-05-06T10:24:27.721Z,27.32
2023-05-06T10:25:27.795Z,27.33
2023-05-06T10:26:27.816Z,27.30
2023-05-06T10:27:27.858Z,27.33
2023-05-06T10:28:30.969Z,27.32
2023-05-06T10:29:27.911Z,27.32
2023-05-06T10:30:27.912Z,27.30
2023-05-06T10:31:27.927Z,27.32
2023-05-06T10:32:27.880Z,27.33
2023-05-06T10:33:28.388Z,27.32
2023-05-06T10:34:27.860Z,27.32
2023-05-06T10:35:27.844Z,27.33
2023-05-06T10:36:27.842Z,27.32
2023-05-06T10:37:27.851Z,27.32
2023-05-06T10:38:27.828Z,27.29
2023-05-06T10:39:27.797Z,27.32
2023-05-06T10:40:27.824Z,27.33
2023-05-06T10:41:27.915Z,27.30
2023-05-06T10:42:27.808Z,27.30
2023-05-06T10:43:27.900Z,27.30
2023-05-06T10:44:27.787Z,27.32
2023-05-06T10:45:27.783Z,27.30
2023-05-06T10:46:27.805Z,27.30
2023-05-06T10:47:27.831Z,27.33
2023-05-06T10:48:27.761Z,27.32
2023-05-06T10:49:27.796Z,27.32
2023-05-06T10:50:27.771Z,27.32
2023-05-06T10:51:27.720Z,27.32
2023-05-06T10:52:27.714Z,27.32
2023-05-06T10:53:27.685Z,27.30
2023-05-06T10:54:27.693Z,27.30
2023-05-06T10:55:27.700Z,27.32
2023-05-06T10:56:27.724Z,27.33
2023-05-06T10:57:27.684Z,27.32
2023-05-06T10:58:27.648Z,27.32
2023-05-06T10:59:27.650Z,27.32
2023-05-06T11:00:27.641Z,27.32
2023-05-06T11:01:27.694Z,27.33
2023-05-06T11:02:27.650Z,27.32
2023-05-06T11:03:27.850Z,27.30
2023-05-06T11:04:27.638Z,27.33
2023-05-06T11:05:27.626Z,27.33
2023-05-06T11:06:27.606Z,27.34
2023-05-06T11:07:27.617Z,27.30
2023-05-06T11:08:27.684Z,27.33
2023-05-06T11:09:27.727Z,27.33
2023-05-06T11:10:27.753Z,27.33
2023-05-06T11:11:27.788Z,27.33
2023-05-06T11:12:27.834Z,27.33
2023-05-06T11:13:28.155Z,27.32
2023-05-06T11:14:27.908Z,27.32
2023-05-06T11:15:28.082Z,27.34
2023-05-06T11:16:28.033Z,27.33
2023-05-06T11:17:28.128Z,27.36
2023-05-06T11:18:28.106Z,27.33
2023-05-06T11:19:28.129Z,27.34
2023-05-06T11:20:28.166Z,27.36
2023-05-06T11:21:28.180Z,27.37
2023-05-06T11:22:28.237Z,27.36
2023-05-06T11:23:28.260Z,27.37
2023-05-06T11:24:28.339Z,27.36
2023-05-06T11:25:28.352Z,27.34
2023-05-06T11:26:28.430Z,27.36
2023-05-06T11:27:28.426Z,27.36
2023-05-06T11:28:28.467Z,27.37
2023-05-06T11:29:28.508Z,27.37
2023-05-06T11:30:28.555Z,27.36
2023-05-06T11:31:28.775Z,27.36
2023-05-06T11:32:28.636Z,27.37
2023-05-06T11:33:28.675Z,27.37
2023-05-06T11:34:28.738Z,27.38
2023-05-06T11:35:28.757Z,27.37
2023-05-06T11:36:28.790Z,27.38
2023-05-06T11:37:28.919Z,27.37
2023-05-06T11:38:28.895Z,27.37
2023-05-06T11:39:28.937Z,27.38
2023-05-06T11:40:28.930Z,27.37
2023-05-06T11:41:28.996Z,27.40
2023-05-06T11:42:29.072Z,27.40
2023-05-06T11:43:29.044Z,27.38
2023-05-06T11:44:29.100Z,27.40
2023-05-06T11:45:29.147Z,27.40
2023-05-06T11:46:29.244Z,27.44
2023-05-06T11:47:29.302Z,27.43
2023-05-06T11:48:29.264Z,27.41
2023-05-06T11:49:29.262Z,27.43
2023-05-06T11:50:29.297Z,27.40
2023-05-06T11:51:29.372Z,27.44
2023-05-06T11:52:29.380Z,27.43
2023-05-06T11:53:29.416Z,27.44
2023-05-06T11:54:29.398Z,27.43
2023-05-06T11:55:29.449Z,27.43
2023-05-06T11:56:29.466Z,27.43
2023-05-06T11:57:29.508Z,27.44
2023-05-06T11:58:29.538Z,27.44
2023-05-06T11:59:29.620Z,27.43
2023-05-06T12:00:29.644Z,27.45
2023-05-06T12:01:29.655Z,27.44
2023-05-06T12:02:29.758Z,27.47
2023-05-06T12:03:29.909Z,27.45
2023-05-06T12:04:29.743Z,27.48
2023-05-06T12:05:29.752Z,27.45
2023-05-06T12:06:29.788Z,27.45
2023-05-06T12:07:29.822Z,27.44
2023-05-06T12:08:29.840Z,27.47
2023-05-06T12:09:29.905Z,27.45
2023-05-06T12:10:29.921Z,27.45
2023-05-06T12:11:29.928Z,27.45
2023-05-06T12:12:29.937Z,27.45
2023-05-06T12:13:29.986Z,27.45
2023-05-06T12:14:30.030Z,27.45
2023-05-06T12:15:30.066Z,27.48
2023-05-06T12:16:30.139Z,27.48
2023-05-06T12:17:30.187Z,27.50
2023-05-06T12:18:30.111Z,27.50
2023-05-06T12:19:30.177Z,27.51
2023-05-06T12:20:30.180Z,27.51
2023-05-06T12:21:30.204Z,27.54
2023-05-06T12:22:30.228Z,27.51
2023-05-06T12:23:30.276Z,27.51
2023-05-06T12:24:30.242Z,27.53
2023-05-06T12:25:30.274Z,27.51
2023-05-06T12:26:30.314Z,27.57
2023-05-06T12:27:30.364Z,27.54
2023-05-06T12:28:30.349Z,27.51
2023-05-06T12:29:30.395Z,27.53
2023-05-06T12:30:30.430Z,27.53
2023-05-06T12:31:30.476Z,27.53
2023-05-06T12:32:30.471Z,27.53
2023-05-06T12:33:30.453Z,27.54
2023-05-06T12:34:30.523Z,27.54
2023-05-06T12:35:30.518Z,27.53
2023-05-06T12:36:30.543Z,27.54
2023-05-06T12:37:30.599Z,27.53
2023-05-06T12:38:30.592Z,27.51
2023-05-06T12:39:30.606Z,27.55
2023-05-06T12:40:30.636Z,27.57
2023-05-06T12:41:30.679Z,27.55
2023-05-06T12:42:30.701Z,27.55
2023-05-06T12:43:30.759Z,27.54
2023-05-06T12:44:30.746Z,27.54
2023-05-06T12:45:30.851Z,27.57
2023-05-06T12:46:30.840Z,27.55
2023-05-06T12:47:30.836Z,27.57
2023-05-06T12:48:30.867Z,27.53
2023-05-06T12:49:30.857Z,27.53
2023-05-06T12:50:30.892Z,27.53
2023-05-06T12:51:31.122Z,27.54
2023-05-06T12:52:30.921Z,27.55